sensor_id;sensor_type;location;lat;lon;timestamp;temperature;humidity
10419;DHT22;5256;48.728;9.140;2024-03-06T00:00:28;4.50;99.90
10419;DHT22;5256;48.728;9.140;2024-03-06T00:02:53;4.60;99.90
10419;DHT22;5256;48.728;9.140;2024-03-06T00:05:20;4.60;99.90
10419;DHT22;5256;48.728;9.140;2024-03-06T00:07:46;4.80;99.90
10419;DHT22;5256;48.728;9.140;2024-03-06T00:10:11;4.90;99.90
10419;DHT22;5256;48.728;9.140;2024-03-06T00:12:37;5.00;99.90
10419;DHT22;5256;48.728;9.140;2024-03-06T00:15:02;5.00;99.90
10419;DHT22;5256;48.728;9.140;2024-03-06T00:17:28;5.10;99.90
10419;DHT22;5256;48.728;9.140;2024-03-06T00:19:54;5.00;99.90
10419;DHT22;5256;48.728;9.140;2024-03-06T00:22:19;5.00;99.90
10419;DHT22;5256;48.728;9.140;2024-03-06T00:24:45;5.00;99.90
10419;DHT22;5256;48.728;9.140;2024-03-06T00:27:13;4.90;99.90
10419;DHT22;5256;48.728;9.140;2024-03-06T00:29:39;4.90;99.90
10419;DHT22;5256;48.728;9.140;2024-03-06T00:32:04;4.90;99.90
10419;DHT22;5256;48.728;9.140;2024-03-06T00:34:30;4.90;99.90
10419;DHT22;5256;48.728;9.140;2024-03-06T00:36:56;4.80;99.90
10419;DHT22;5256;48.728;9.140;2024-03-06T00:39:21;4.80;99.90
10419;DHT22;5256;48.728;9.140;2024-03-06T00:41:47;4.80;99.90
10419;DHT22;5256;48.728;9.140;2024-03-06T00:44:13;4.80;99.90
10419;DHT22;5256;48.728;9.140;2024-03-06T00:46:38;4.60;99.90
10419;DHT22;5256;48.728;9.140;2024-03-06T00:49:04;4.60;99.90
10419;DHT22;5256;48.728;9.140;2024-03-06T00:51:29;4.60;99.90
10419;DHT22;5256;48.728;9.140;2024-03-06T00:53:56;4.50;99.90
10419;DHT22;5256;48.728;9.140;2024-03-06T00:56:22;4.50;99.90
10419;DHT22;5256;48.728;9.140;2024-03-06T00:58:47;4.40;99.90
10419;DHT22;5256;48.728;9.140;2024-03-06T01:01:14;4.40;99.90
10419;DHT22;5256;48.728;9.140;2024-03-06T01:03:40;4.40;99.90
10419;DHT22;5256;48.728;9.140;2024-03-06T01:06:05;4.40;99.90
10419;DHT22;5256;48.728;9.140;2024-03-06T01:08:31;4.30;99.90
10419;DHT22;5256;48.728;9.140;2024-03-06T01:10:57;4.30;99.90
10419;DHT22;5256;48.728;9.140;2024-03-06T01:13:22;4.30;99.90
10419;DHT22;5256;48.728;9.140;2024-03-06T01:15:48;4.20;99.90
10419;DHT22;5256;48.728;9.140;2024-03-06T01:18:13;4.20;99.90
10419;DHT22;5256;48.728;9.140;2024-03-06T01:20:39;4.20;99.90
10419;DHT22;5256;48.728;9.140;2024-03-06T01:23:06;4.10;99.90
10419;DHT22;5256;48.728;9.140;2024-03-06T01:25:32;4.20;99.90
10419;DHT22;5256;48.728;9.140;2024-03-06T01:27:57;4.10;99.90
10419;DHT22;5256;48.728;9.140;2024-03-06T01:30:23;4.20;99.90
10419;DHT22;5256;48.728;9.140;2024-03-06T01:32:49;4.20;99.90
10419;DHT22;5256;48.728;9.140;2024-03-06T01:35:14;4.20;99.90
10419;DHT22;5256;48.728;9.140;2024-03-06T01:37:40;4.20;99.90
10419;DHT22;5256;48.728;9.140;2024-03-06T01:40:06;4.30;99.90
10419;DHT22;5256;48.728;9.140;2024-03-06T01:42:32;4.30;99.90
10419;DHT22;5256;48.728;9.140;2024-03-06T01:44:58;4.20;99.90
10419;DHT22;5256;48.728;9.140;2024-03-06T01:47:24;4.20;99.90
10419;DHT22;5256;48.728;9.140;2024-03-06T01:49:50;4.20;99.90
10419;DHT22;5256;48.728;9.140;2024-03-06T01:52:16;4.20;99.90
10419;DHT22;5256;48.728;9.140;2024-03-06T01:54:44;4.10;99.90
10419;DHT22;5256;48.728;9.140;2024-03-06T01:57:11;4.10;99.90
10419;DHT22;5256;48.728;9.140;2024-03-06T01:59:39;4.20;99.90
10419;DHT22;5256;48.728;9.140;2024-03-06T02:02:05;4.10;99.90
10419;DHT22;5256;48.728;9.140;2024-03-06T02:04:33;4.10;99.90
10419;DHT22;5256;48.728;9.140;2024-03-06T02:06:58;4.10;99.90
10419;DHT22;5256;48.728;9.140;2024-03-06T02:09:24;4.10;99.90
10419;DHT22;5256;48.728;9.140;2024-03-06T02:11:50;4.10;99.90
10419;DHT22;5256;48.728;9.140;2024-03-06T02:14:16;4.10;99.90
10419;DHT22;5256;48.728;9.140;2024-03-06T02:16:41;4.00;99.90
10419;DHT22;5256;48.728;9.140;2024-03-06T02:19:07;4.20;99.90
10419;DHT22;5256;48.728;9.140;2024-03-06T02:21:33;4.10;99.90
10419;DHT22;5256;48.728;9.140;2024-03-06T02:23:59;4.10;99.90
10419;DHT22;5256;48.728;9.140;2024-03-06T02:26:25;4.20;99.90
10419;DHT22;5256;48.728;9.140;2024-03-06T02:28:52;4.20;99.90
10419;DHT22;5256;48.728;9.140;2024-03-06T02:31:18;4.30;99.90
10419;DHT22;5256;48.728;9.140;2024-03-06T02:33:48;4.30;99.90
10419;DHT22;5256;48.728;9.140;2024-03-06T02:36:17;4.30;99.90
10419;DHT22;5256;48.728;9.140;2024-03-06T02:38:43;4.50;99.90
10419;DHT22;5256;48.728;9.140;2024-03-06T02:41:10;4.60;99.90
10419;DHT22;5256;48.728;9.140;2024-03-06T02:43:36;4.60;99.90
10419;DHT22;5256;48.728;9.140;2024-03-06T02:46:02;4.60;99.90
10419;DHT22;5256;48.728;9.140;2024-03-06T02:48:28;4.60;99.90
10419;DHT22;5256;48.728;9.140;2024-03-06T02:50:54;4.60;99.90
10419;DHT22;5256;48.728;9.140;2024-03-06T02:53:20;4.70;99.90
10419;DHT22;5256;48.728;9.140;2024-03-06T02:55:46;4.70;99.90
10419;DHT22;5256;48.728;9.140;2024-03-06T02:58:11;4.70;99.90
10419;DHT22;5256;48.728;9.140;2024-03-06T03:00:39;4.60;99.90
10419;DHT22;5256;48.728;9.140;2024-03-06T03:03:05;4.60;99.90
10419;DHT22;5256;48.728;9.140;2024-03-06T03:05:31;4.70;99.90
10419;DHT22;5256;48.728;9.140;2024-03-06T03:07:58;4.90;99.90
10419;DHT22;5256;48.728;9.140;2024-03-06T03:10:24;4.80;99.90
10419;DHT22;5256;48.728;9.140;2024-03-06T03:12:50;4.80;99.90
10419;DHT22;5256;48.728;9.140;2024-03-06T03:15:15;4.70;99.90
10419;DHT22;5256;48.728;9.140;2024-03-06T03:17:41;4.70;99.90
10419;DHT22;5256;48.728;9.140;2024-03-06T03:20:07;4.70;99.90
10419;DHT22;5256;48.728;9.140;2024-03-06T03:22:37;4.80;99.90
10419;DHT22;5256;48.728;9.140;2024-03-06T03:25:04;4.80;99.90
10419;DHT22;5256;48.728;9.140;2024-03-06T03:27:32;4.90;99.90
10419;DHT22;5256;48.728;9.140;2024-03-06T03:29:58;5.00;99.90
10419;DHT22;5256;48.728;9.140;2024-03-06T03:32:24;4.90;99.90
10419;DHT22;5256;48.728;9.140;2024-03-06T03:34:49;4.90;99.90
10419;DHT22;5256;48.728;9.140;2024-03-06T03:37:15;5.00;99.90
10419;DHT22;5256;48.728;9.140;2024-03-06T03:39:40;4.90;99.90
10419;DHT22;5256;48.728;9.140;2024-03-06T03:42:07;4.90;99.90
10419;DHT22;5256;48.728;9.140;2024-03-06T03:44:33;4.80;99.90
10419;DHT22;5256;48.728;9.140;2024-03-06T03:46:58;4.70;99.90
10419;DHT22;5256;48.728;9.140;2024-03-06T03:49:24;4.60;99.90
10419;DHT22;5256;48.728;9.140;2024-03-06T03:51:49;4.60;99.90
10419;DHT22;5256;48.728;9.140;2024-03-06T03:54:15;4.70;99.90
10419;DHT22;5256;48.728;9.140;2024-03-06T03:56:40;4.70;99.90
10419;DHT22;5256;48.728;9.140;2024-03-06T03:59:06;4.70;99.90
10419;DHT22;5256;48.728;9.140;2024-03-06T04:01:32;4.70;99.90
10419;DHT22;5256;48.728;9.140;2024-03-06T04:03:58;4.70;99.90
10419;DHT22;5256;48.728;9.140;2024-03-06T04:06:23;4.80;99.90
10419;DHT22;5256;48.728;9.140;2024-03-06T04:08:49;4.80;99.90
10419;DHT22;5256;48.728;9.140;2024-03-06T04:11:14;4.80;99.90
10419;DHT22;5256;48.728;9.140;2024-03-06T04:13:40;4.80;99.90
10419;DHT22;5256;48.728;9.140;2024-03-06T04:16:05;4.80;99.90
10419;DHT22;5256;48.728;9.140;2024-03-06T04:18:32;4.70;99.90
10419;DHT22;5256;48.728;9.140;2024-03-06T04:21:06;4.80;99.90
10419;DHT22;5256;48.728;9.140;2024-03-06T04:23:32;4.70;99.90
10419;DHT22;5256;48.728;9.140;2024-03-06T04:25:59;4.60;99.90
10419;DHT22;5256;48.728;9.140;2024-03-06T04:28:24;4.60;99.90
10419;DHT22;5256;48.728;9.140;2024-03-06T04:30:50;4.50;99.90
10419;DHT22;5256;48.728;9.140;2024-03-06T04:33:16;4.40;99.90
10419;DHT22;5256;48.728;9.140;2024-03-06T04:35:41;4.40;99.90
10419;DHT22;5256;48.728;9.140;2024-03-06T04:38:07;4.50;99.90
10419;DHT22;5256;48.728;9.140;2024-03-06T04:40:33;4.40;99.90
10419;DHT22;5256;48.728;9.140;2024-03-06T04:43:00;4.30;99.90
10419;DHT22;5256;48.728;9.140;2024-03-06T04:45:25;4.30;99.90
10419;DHT22;5256;48.728;9.140;2024-03-06T04:47:51;4.40;99.90
10419;DHT22;5256;48.728;9.140;2024-03-06T04:50:16;4.40;99.90
10419;DHT22;5256;48.728;9.140;2024-03-06T04:52:43;4.50;99.90
10419;DHT22;5256;48.728;9.140;2024-03-06T04:55:10;4.50;99.90
10419;DHT22;5256;48.728;9.140;2024-03-06T04:57:37;4.60;99.90
10419;DHT22;5256;48.728;9.140;2024-03-06T05:00:03;4.60;99.90
10419;DHT22;5256;48.728;9.140;2024-03-06T05:02:31;4.50;99.90
10419;DHT22;5256;48.728;9.140;2024-03-06T05:04:59;4.40;99.90
10419;DHT22;5256;48.728;9.140;2024-03-06T05:07:27;4.60;99.90
10419;DHT22;5256;48.728;9.140;2024-03-06T05:09:52;4.50;99.90
10419;DHT22;5256;48.728;9.140;2024-03-06T05:12:18;4.60;99.90
10419;DHT22;5256;48.728;9.140;2024-03-06T05:14:43;4.60;99.90
10419;DHT22;5256;48.728;9.140;2024-03-06T05:17:09;4.70;99.90
10419;DHT22;5256;48.728;9.140;2024-03-06T05:19:36;4.70;99.90
10419;DHT22;5256;48.728;9.140;2024-03-06T05:22:01;4.70;99.90
10419;DHT22;5256;48.728;9.140;2024-03-06T05:24:27;4.60;99.90
10419;DHT22;5256;48.728;9.140;2024-03-06T05:26:53;4.60;99.90
10419;DHT22;5256;48.728;9.140;2024-03-06T05:29:18;4.60;99.90
10419;DHT22;5256;48.728;9.140;2024-03-06T05:31:44;4.50;99.90
10419;DHT22;5256;48.728;9.140;2024-03-06T05:34:09;4.50;99.90
10419;DHT22;5256;48.728;9.140;2024-03-06T05:36:35;4.50;99.90
10419;DHT22;5256;48.728;9.140;2024-03-06T05:39:01;4.40;99.90
10419;DHT22;5256;48.728;9.140;2024-03-06T05:41:27;4.50;99.90
10419;DHT22;5256;48.728;9.140;2024-03-06T05:43:53;4.60;99.90
10419;DHT22;5256;48.728;9.140;2024-03-06T05:46:18;4.50;99.90
10419;DHT22;5256;48.728;9.140;2024-03-06T05:48:45;4.50;99.90
10419;DHT22;5256;48.728;9.140;2024-03-06T05:51:10;4.40;99.90
10419;DHT22;5256;48.728;9.140;2024-03-06T05:53:39;4.60;99.90
10419;DHT22;5256;48.728;9.140;2024-03-06T05:56:07;4.60;99.90
10419;DHT22;5256;48.728;9.140;2024-03-06T05:58:33;4.60;99.90
10419;DHT22;5256;48.728;9.140;2024-03-06T06:01:00;4.50;99.90
10419;DHT22;5256;48.728;9.140;2024-03-06T06:03:26;4.50;99.90
10419;DHT22;5256;48.728;9.140;2024-03-06T06:05:53;4.50;99.90
10419;DHT22;5256;48.728;9.140;2024-03-06T06:08:19;4.60;99.90
10419;DHT22;5256;48.728;9.140;2024-03-06T06:10:45;4.50;99.90
10419;DHT22;5256;48.728;9.140;2024-03-06T06:13:10;4.50;99.90
10419;DHT22;5256;48.728;9.140;2024-03-06T06:15:36;4.50;99.90
10419;DHT22;5256;48.728;9.140;2024-03-06T06:18:01;4.40;99.90
10419;DHT22;5256;48.728;9.140;2024-03-06T06:20:27;4.50;99.90
10419;DHT22;5256;48.728;9.140;2024-03-06T06:22:52;4.50;99.90
10419;DHT22;5256;48.728;9.140;2024-03-06T06:25:18;4.50;99.90
10419;DHT22;5256;48.728;9.140;2024-03-06T06:27:44;4.50;99.90
10419;DHT22;5256;48.728;9.140;2024-03-06T06:30:10;4.50;99.90
10419;DHT22;5256;48.728;9.140;2024-03-06T06:32:37;4.40;99.90
10419;DHT22;5256;48.728;9.140;2024-03-06T06:35:04;4.50;99.90
10419;DHT22;5256;48.728;9.140;2024-03-06T06:37:29;4.50;99.90
10419;DHT22;5256;48.728;9.140;2024-03-06T06:39:55;4.60;99.90
10419;DHT22;5256;48.728;9.140;2024-03-06T06:42:20;4.70;99.90
10419;DHT22;5256;48.728;9.140;2024-03-06T06:44:46;4.60;99.90
10419;DHT22;5256;48.728;9.140;2024-03-06T06:47:11;4.70;99.90
10419;DHT22;5256;48.728;9.140;2024-03-06T06:49:37;4.60;99.90
10419;DHT22;5256;48.728;9.140;2024-03-06T06:52:03;4.60;99.90
10419;DHT22;5256;48.728;9.140;2024-03-06T06:54:28;4.60;99.90
10419;DHT22;5256;48.728;9.140;2024-03-06T06:56:54;4.60;99.90
10419;DHT22;5256;48.728;9.140;2024-03-06T06:59:19;4.70;99.90
10419;DHT22;5256;48.728;9.140;2024-03-06T07:01:47;4.60;99.90
10419;DHT22;5256;48.728;9.140;2024-03-06T07:04:13;4.60;99.90
10419;DHT22;5256;48.728;9.140;2024-03-06T07:06:42;4.50;99.90
10419;DHT22;5256;48.728;9.140;2024-03-06T07:09:07;4.60;99.90
10419;DHT22;5256;48.728;9.140;2024-03-06T07:11:34;4.70;99.90
10419;DHT22;5256;48.728;9.140;2024-03-06T07:14:00;4.70;99.90
10419;DHT22;5256;48.728;9.140;2024-03-06T07:16:26;4.70;99.90
10419;DHT22;5256;48.728;9.140;2024-03-06T07:18:51;4.70;99.90
10419;DHT22;5256;48.728;9.140;2024-03-06T07:21:17;4.70;99.90
10419;DHT22;5256;48.728;9.140;2024-03-06T07:23:43;4.80;99.90
10419;DHT22;5256;48.728;9.140;2024-03-06T07:26:09;4.90;99.90
10419;DHT22;5256;48.728;9.140;2024-03-06T07:28:35;4.90;99.90
10419;DHT22;5256;48.728;9.140;2024-03-06T07:31:02;5.00;99.90
10419;DHT22;5256;48.728;9.140;2024-03-06T07:33:28;5.00;99.90
10419;DHT22;5256;48.728;9.140;2024-03-06T07:35:54;5.20;99.90
10419;DHT22;5256;48.728;9.140;2024-03-06T07:38:20;5.20;99.90
10419;DHT22;5256;48.728;9.140;2024-03-06T07:40:46;5.20;99.90
10419;DHT22;5256;48.728;9.140;2024-03-06T07:43:11;5.20;99.90
10419;DHT22;5256;48.728;9.140;2024-03-06T07:45:37;5.20;99.90
10419;DHT22;5256;48.728;9.140;2024-03-06T07:48:03;5.20;99.90
10419;DHT22;5256;48.728;9.140;2024-03-06T07:50:29;5.10;99.90
10419;DHT22;5256;48.728;9.140;2024-03-06T07:52:54;5.10;99.90
10419;DHT22;5256;48.728;9.140;2024-03-06T07:55:20;5.10;99.90
10419;DHT22;5256;48.728;9.140;2024-03-06T07:57:47;5.20;99.90
10419;DHT22;5256;48.728;9.140;2024-03-06T08:00:13;5.20;99.90
10419;DHT22;5256;48.728;9.140;2024-03-06T08:02:48;5.20;99.90
10419;DHT22;5256;48.728;9.140;2024-03-06T08:05:15;5.20;99.90
10419;DHT22;5256;48.728;9.140;2024-03-06T08:07:41;5.20;99.90
10419;DHT22;5256;48.728;9.140;2024-03-06T08:10:11;5.20;99.90
10419;DHT22;5256;48.728;9.140;2024-03-06T08:12:42;5.20;99.90
10419;DHT22;5256;48.728;9.140;2024-03-06T08:15:10;5.30;99.90
10419;DHT22;5256;48.728;9.140;2024-03-06T08:17:41;5.30;99.90
10419;DHT22;5256;48.728;9.140;2024-03-06T08:20:10;5.30;99.90
10419;DHT22;5256;48.728;9.140;2024-03-06T08:22:42;5.30;99.90
10419;DHT22;5256;48.728;9.140;2024-03-06T08:25:09;5.30;99.90
10419;DHT22;5256;48.728;9.140;2024-03-06T08:27:40;5.30;99.90
10419;DHT22;5256;48.728;9.140;2024-03-06T08:30:07;5.30;99.90
10419;DHT22;5256;48.728;9.140;2024-03-06T08:32:34;5.30;99.90
10419;DHT22;5256;48.728;9.140;2024-03-06T08:35:08;5.30;99.90
10419;DHT22;5256;48.728;9.140;2024-03-06T08:37:41;5.30;99.90
10419;DHT22;5256;48.728;9.140;2024-03-06T08:40:07;5.30;99.90
10419;DHT22;5256;48.728;9.140;2024-03-06T08:42:35;5.30;99.90
10419;DHT22;5256;48.728;9.140;2024-03-06T08:45:01;5.30;99.90
10419;DHT22;5256;48.728;9.140;2024-03-06T08:47:26;5.30;99.90
10419;DHT22;5256;48.728;9.140;2024-03-06T08:49:52;5.30;99.90
10419;DHT22;5256;48.728;9.140;2024-03-06T08:52:18;5.30;99.90
10419;DHT22;5256;48.728;9.140;2024-03-06T08:54:43;5.30;99.90
10419;DHT22;5256;48.728;9.140;2024-03-06T08:57:10;5.40;99.90
10419;DHT22;5256;48.728;9.140;2024-03-06T08:59:36;5.50;99.90
10419;DHT22;5256;48.728;9.140;2024-03-06T09:02:16;5.50;99.90
10419;DHT22;5256;48.728;9.140;2024-03-06T09:04:42;5.50;99.90
10419;DHT22;5256;48.728;9.140;2024-03-06T09:07:09;5.60;99.90
10419;DHT22;5256;48.728;9.140;2024-03-06T09:09:35;5.70;99.90
10419;DHT22;5256;48.728;9.140;2024-03-06T09:12:05;5.60;99.90
10419;DHT22;5256;48.728;9.140;2024-03-06T09:14:33;5.70;99.90
10419;DHT22;5256;48.728;9.140;2024-03-06T09:16:59;5.70;99.90
10419;DHT22;5256;48.728;9.140;2024-03-06T09:19:25;5.80;99.90
10419;DHT22;5256;48.728;9.140;2024-03-06T09:21:50;5.80;99.90
10419;DHT22;5256;48.728;9.140;2024-03-06T09:24:16;5.70;99.90
10419;DHT22;5256;48.728;9.140;2024-03-06T09:26:43;5.70;99.90
10419;DHT22;5256;48.728;9.140;2024-03-06T09:29:09;5.70;99.90
10419;DHT22;5256;48.728;9.140;2024-03-06T09:31:35;5.70;99.90
10419;DHT22;5256;48.728;9.140;2024-03-06T09:34:02;5.70;99.90
10419;DHT22;5256;48.728;9.140;2024-03-06T09:36:28;5.70;99.90
10419;DHT22;5256;48.728;9.140;2024-03-06T09:38:54;5.70;99.90
10419;DHT22;5256;48.728;9.140;2024-03-06T09:41:21;5.70;99.90
10419;DHT22;5256;48.728;9.140;2024-03-06T09:43:47;5.70;99.90
10419;DHT22;5256;48.728;9.140;2024-03-06T09:46:13;5.60;99.90
10419;DHT22;5256;48.728;9.140;2024-03-06T09:48:46;5.70;99.90
10419;DHT22;5256;48.728;9.140;2024-03-06T09:51:12;5.60;99.90
10419;DHT22;5256;48.728;9.140;2024-03-06T09:53:39;5.70;99.90
10419;DHT22;5256;48.728;9.140;2024-03-06T09:56:05;5.80;99.90
10419;DHT22;5256;48.728;9.140;2024-03-06T09:58:32;5.70;99.90
10419;DHT22;5256;48.728;9.140;2024-03-06T10:00:59;5.70;99.90
10419;DHT22;5256;48.728;9.140;2024-03-06T10:03:26;5.70;99.90
10419;DHT22;5256;48.728;9.140;2024-03-06T10:05:52;5.70;99.90
10419;DHT22;5256;48.728;9.140;2024-03-06T10:08:20;5.70;99.90
10419;DHT22;5256;48.728;9.140;2024-03-06T10:10:49;5.60;99.90
10419;DHT22;5256;48.728;9.140;2024-03-06T10:13:18;5.60;99.90
10419;DHT22;5256;48.728;9.140;2024-03-06T10:16:03;5.70;99.90
10419;DHT22;5256;48.728;9.140;2024-03-06T10:18:30;5.70;99.90
10419;DHT22;5256;48.728;9.140;2024-03-06T10:20:58;5.80;99.90
10419;DHT22;5256;48.728;9.140;2024-03-06T10:23:24;5.80;99.90
10419;DHT22;5256;48.728;9.140;2024-03-06T10:25:50;5.80;99.90
10419;DHT22;5256;48.728;9.140;2024-03-06T10:28:21;5.80;99.90
10419;DHT22;5256;48.728;9.140;2024-03-06T10:30:48;5.80;99.90
10419;DHT22;5256;48.728;9.140;2024-03-06T10:33:15;5.90;99.90
10419;DHT22;5256;48.728;9.140;2024-03-06T10:35:43;5.90;99.90
10419;DHT22;5256;48.728;9.140;2024-03-06T10:38:10;5.90;99.90
10419;DHT22;5256;48.728;9.140;2024-03-06T10:40:40;5.90;99.90
10419;DHT22;5256;48.728;9.140;2024-03-06T10:43:08;6.00;99.90
10419;DHT22;5256;48.728;9.140;2024-03-06T10:48:09;6.00;99.90
10419;DHT22;5256;48.728;9.140;2024-03-06T10:50:39;6.10;99.90
10419;DHT22;5256;48.728;9.140;2024-03-06T10:53:08;6.20;99.90
10419;DHT22;5256;48.728;9.140;2024-03-06T10:55:36;6.30;99.90
10419;DHT22;5256;48.728;9.140;2024-03-06T10:58:04;6.20;99.90
10419;DHT22;5256;48.728;9.140;2024-03-06T11:00:30;6.20;99.90
10419;DHT22;5256;48.728;9.140;2024-03-06T11:02:57;6.20;99.90
10419;DHT22;5256;48.728;9.140;2024-03-06T11:05:24;6.30;99.90
10419;DHT22;5256;48.728;9.140;2024-03-06T11:07:50;6.20;99.90
10419;DHT22;5256;48.728;9.140;2024-03-06T11:10:30;6.10;99.90
10419;DHT22;5256;48.728;9.140;2024-03-06T11:12:56;6.00;99.90
10419;DHT22;5256;48.728;9.140;2024-03-06T11:15:25;6.00;99.90
10419;DHT22;5256;48.728;9.140;2024-03-06T11:17:50;5.90;99.90
10419;DHT22;5256;48.728;9.140;2024-03-06T11:20:18;5.90;99.90
10419;DHT22;5256;48.728;9.140;2024-03-06T11:28:17;6.00;99.90
10419;DHT22;5256;48.728;9.140;2024-03-06T11:33:15;6.00;99.90
10419;DHT22;5256;48.728;9.140;2024-03-06T11:35:42;5.90;99.90
10419;DHT22;5256;48.728;9.140;2024-03-06T11:38:10;5.90;99.90
10419;DHT22;5256;48.728;9.140;2024-03-06T11:40:43;5.80;99.90
10419;DHT22;5256;48.728;9.140;2024-03-06T11:43:24;5.80;99.90
10419;DHT22;5256;48.728;9.140;2024-03-06T11:45:50;5.80;99.90
10419;DHT22;5256;48.728;9.140;2024-03-06T11:48:16;5.80;99.90
10419;DHT22;5256;48.728;9.140;2024-03-06T11:50:47;5.80;99.90
10419;DHT22;5256;48.728;9.140;2024-03-06T11:53:16;5.70;99.90
10419;DHT22;5256;48.728;9.140;2024-03-06T11:55:42;5.70;99.90
10419;DHT22;5256;48.728;9.140;2024-03-06T11:58:08;5.60;99.90
10419;DHT22;5256;48.728;9.140;2024-03-06T12:00:37;5.70;99.90
10419;DHT22;5256;48.728;9.140;2024-03-06T12:03:03;5.70;99.90
10419;DHT22;5256;48.728;9.140;2024-03-06T12:05:31;5.70;99.90
10419;DHT22;5256;48.728;9.140;2024-03-06T12:07:56;5.60;99.90
10419;DHT22;5256;48.728;9.140;2024-03-06T12:10:22;5.70;99.90
10419;DHT22;5256;48.728;9.140;2024-03-06T12:12:48;5.60;99.90
10419;DHT22;5256;48.728;9.140;2024-03-06T12:15:14;5.60;99.90
10419;DHT22;5256;48.728;9.140;2024-03-06T12:17:44;5.60;99.90
10419;DHT22;5256;48.728;9.140;2024-03-06T12:20:13;5.60;99.90
10419;DHT22;5256;48.728;9.140;2024-03-06T12:22:49;5.60;99.90
10419;DHT22;5256;48.728;9.140;2024-03-06T12:25:24;5.50;99.90
10419;DHT22;5256;48.728;9.140;2024-03-06T12:27:53;5.60;99.90
10419;DHT22;5256;48.728;9.140;2024-03-06T12:30:19;5.60;99.90
10419;DHT22;5256;48.728;9.140;2024-03-06T12:32:56;5.70;99.90
10419;DHT22;5256;48.728;9.140;2024-03-06T12:35:26;5.80;99.90
10419;DHT22;5256;48.728;9.140;2024-03-06T12:37:51;5.80;99.90
10419;DHT22;5256;48.728;9.140;2024-03-06T12:40:18;5.70;99.90
10419;DHT22;5256;48.728;9.140;2024-03-06T12:42:44;5.70;99.90
10419;DHT22;5256;48.728;9.140;2024-03-06T12:45:11;5.60;99.90
10419;DHT22;5256;48.728;9.140;2024-03-06T12:47:41;5.70;99.90
10419;DHT22;5256;48.728;9.140;2024-03-06T12:50:07;5.60;99.90
10419;DHT22;5256;48.728;9.140;2024-03-06T12:52:34;5.60;99.90
10419;DHT22;5256;48.728;9.140;2024-03-06T12:55:00;5.70;99.90
10419;DHT22;5256;48.728;9.140;2024-03-06T12:57:26;5.70;99.90
10419;DHT22;5256;48.728;9.140;2024-03-06T12:59:53;5.70;99.90
10419;DHT22;5256;48.728;9.140;2024-03-06T13:02:18;5.80;99.90
10419;DHT22;5256;48.728;9.140;2024-03-06T13:04:44;5.80;99.90
10419;DHT22;5256;48.728;9.140;2024-03-06T13:07:16;5.80;99.90
10419;DHT22;5256;48.728;9.140;2024-03-06T13:09:42;5.80;99.90
10419;DHT22;5256;48.728;9.140;2024-03-06T13:12:07;5.80;99.90
10419;DHT22;5256;48.728;9.140;2024-03-06T13:14:33;5.80;99.90
10419;DHT22;5256;48.728;9.140;2024-03-06T13:17:00;5.80;99.90
10419;DHT22;5256;48.728;9.140;2024-03-06T13:19:25;5.80;99.90
10419;DHT22;5256;48.728;9.140;2024-03-06T13:21:51;5.70;99.90
10419;DHT22;5256;48.728;9.140;2024-03-06T13:24:19;5.70;99.90
10419;DHT22;5256;48.728;9.140;2024-03-06T13:26:45;5.70;99.90
10419;DHT22;5256;48.728;9.140;2024-03-06T13:29:11;5.70;99.90
10419;DHT22;5256;48.728;9.140;2024-03-06T13:31:36;5.70;99.90
10419;DHT22;5256;48.728;9.140;2024-03-06T13:34:03;5.70;99.90
10419;DHT22;5256;48.728;9.140;2024-03-06T13:36:29;5.70;99.90
10419;DHT22;5256;48.728;9.140;2024-03-06T13:38:56;5.60;99.90
10419;DHT22;5256;48.728;9.140;2024-03-06T13:41:22;5.60;99.90
10419;DHT22;5256;48.728;9.140;2024-03-06T13:43:47;5.60;99.90
10419;DHT22;5256;48.728;9.140;2024-03-06T13:46:13;5.70;99.90
10419;DHT22;5256;48.728;9.140;2024-03-06T13:48:38;5.70;99.90
10419;DHT22;5256;48.728;9.140;2024-03-06T13:51:04;5.70;99.90
10419;DHT22;5256;48.728;9.140;2024-03-06T13:53:30;5.80;99.90
10419;DHT22;5256;48.728;9.140;2024-03-06T13:55:57;5.70;99.90
10419;DHT22;5256;48.728;9.140;2024-03-06T13:58:22;5.70;99.90
10419;DHT22;5256;48.728;9.140;2024-03-06T14:00:48;5.70;99.90
10419;DHT22;5256;48.728;9.140;2024-03-06T14:03:14;5.70;99.90
10419;DHT22;5256;48.728;9.140;2024-03-06T14:05:39;5.70;99.90
10419;DHT22;5256;48.728;9.140;2024-03-06T14:08:05;5.80;99.90
10419;DHT22;5256;48.728;9.140;2024-03-06T14:10:31;5.70;99.90
10419;DHT22;5256;48.728;9.140;2024-03-06T14:13:02;5.70;99.90
10419;DHT22;5256;48.728;9.140;2024-03-06T14:15:27;5.70;99.90
10419;DHT22;5256;48.728;9.140;2024-03-06T14:17:53;5.60;99.90
10419;DHT22;5256;48.728;9.140;2024-03-06T14:20:20;5.70;99.90
10419;DHT22;5256;48.728;9.140;2024-03-06T14:22:46;5.60;99.90
10419;DHT22;5256;48.728;9.140;2024-03-06T14:25:11;5.70;99.90
10419;DHT22;5256;48.728;9.140;2024-03-06T14:27:37;5.80;99.90
10419;DHT22;5256;48.728;9.140;2024-03-06T14:30:04;5.80;99.90
10419;DHT22;5256;48.728;9.140;2024-03-06T14:32:32;5.80;99.90
10419;DHT22;5256;48.728;9.140;2024-03-06T14:34:58;5.80;99.90
10419;DHT22;5256;48.728;9.140;2024-03-06T14:37:23;5.80;99.90
10419;DHT22;5256;48.728;9.140;2024-03-06T14:39:49;5.80;99.90
10419;DHT22;5256;48.728;9.140;2024-03-06T14:42:16;5.80;99.90
10419;DHT22;5256;48.728;9.140;2024-03-06T14:44:42;5.80;99.90
10419;DHT22;5256;48.728;9.140;2024-03-06T14:47:09;5.90;99.90
10419;DHT22;5256;48.728;9.140;2024-03-06T14:49:35;5.90;99.90
10419;DHT22;5256;48.728;9.140;2024-03-06T14:52:01;5.90;99.90
10419;DHT22;5256;48.728;9.140;2024-03-06T14:54:27;5.90;99.90
10419;DHT22;5256;48.728;9.140;2024-03-06T14:56:53;6.00;99.90
10419;DHT22;5256;48.728;9.140;2024-03-06T14:59:20;6.00;99.90
10419;DHT22;5256;48.728;9.140;2024-03-06T15:01:46;6.00;99.90
10419;DHT22;5256;48.728;9.140;2024-03-06T15:04:13;6.00;99.90
10419;DHT22;5256;48.728;9.140;2024-03-06T15:06:39;6.00;99.90
10419;DHT22;5256;48.728;9.140;2024-03-06T15:09:04;6.10;99.90
10419;DHT22;5256;48.728;9.140;2024-03-06T15:11:31;6.10;99.90
10419;DHT22;5256;48.728;9.140;2024-03-06T15:13:58;6.10;99.90
10419;DHT22;5256;48.728;9.140;2024-03-06T15:16:24;6.10;99.90
10419;DHT22;5256;48.728;9.140;2024-03-06T15:18:50;6.20;99.90
10419;DHT22;5256;48.728;9.140;2024-03-06T15:21:17;6.20;99.90
10419;DHT22;5256;48.728;9.140;2024-03-06T15:23:43;6.30;99.90
10419;DHT22;5256;48.728;9.140;2024-03-06T15:26:08;6.20;99.90
10419;DHT22;5256;48.728;9.140;2024-03-06T15:28:34;6.20;99.90
10419;DHT22;5256;48.728;9.140;2024-03-06T15:31:00;6.20;99.90
10419;DHT22;5256;48.728;9.140;2024-03-06T15:33:29;6.10;99.90
10419;DHT22;5256;48.728;9.140;2024-03-06T15:35:55;6.00;99.90
10419;DHT22;5256;48.728;9.140;2024-03-06T15:38:21;6.00;99.90
10419;DHT22;5256;48.728;9.140;2024-03-06T15:40:46;6.00;99.90
10419;DHT22;5256;48.728;9.140;2024-03-06T15:43:16;6.00;99.90
10419;DHT22;5256;48.728;9.140;2024-03-06T15:45:42;6.00;99.90
10419;DHT22;5256;48.728;9.140;2024-03-06T15:48:08;5.90;99.90
10419;DHT22;5256;48.728;9.140;2024-03-06T15:50:41;5.90;99.90
10419;DHT22;5256;48.728;9.140;2024-03-06T15:53:07;5.90;99.90
10419;DHT22;5256;48.728;9.140;2024-03-06T15:55:34;5.90;99.90
10419;DHT22;5256;48.728;9.140;2024-03-06T15:58:01;5.90;99.90
10419;DHT22;5256;48.728;9.140;2024-03-06T16:00:27;5.90;99.90
10419;DHT22;5256;48.728;9.140;2024-03-06T16:02:53;5.90;99.90
10419;DHT22;5256;48.728;9.140;2024-03-06T16:05:18;5.90;99.90
10419;DHT22;5256;48.728;9.140;2024-03-06T16:07:44;5.90;99.90